createdAt,value
2023-05-10T00:00:14.492Z,98617.61
2023-05-10T00:03:02.761Z,98613.38
2023-05-10T00:05:30.717Z,98613.48
2023-05-10T00:07:58.589Z,98611.67
2023-05-10T00:10:26.500Z,98608.61
2023-05-10T00:12:54.614Z,98608.01
2023-05-10T00:15:22.748Z,98611.19
2023-05-10T00:17:50.821Z,98606.62
2023-05-10T00:20:19.340Z,98598.90
2023-05-10T00:22:47.513Z,98598.62
2023-05-10T00:25:15.445Z,98599.56
2023-05-10T00:27:43.323Z,98594.94
2023-05-10T00:30:12.835Z,98599.36
2023-05-10T00:32:40.737Z,98596.58
2023-05-10T00:35:09.166Z,98599.95
2023-05-10T00:37:36.979Z,98596.25
2023-05-10T00:40:06.099Z,98591.86
2023-05-10T00:42:34.514Z,98584.64
2023-05-10T00:45:02.727Z,98584.06
2023-05-10T00:47:32.645Z,98585.23
2023-05-10T00:50:01.822Z,98586.23
2023-05-10T00:52:31.298Z,98585.10
2023-05-10T00:55:01.279Z,98583.45
2023-05-10T00:57:29.707Z,98582.27
2023-05-10T00:59:58.881Z,98580.22
2023-05-10T01:02:26.811Z,98578.55
2023-05-10T01:04:55.551Z,98576.35
2023-05-10T01:07:23.417Z,98579.34
2023-05-10T01:09:51.415Z,98575.48
2023-05-10T01:12:19.528Z,98577.83
2023-05-10T01:14:48.146Z,98573.05
2023-05-10T01:17:17.368Z,98572.43
2023-05-10T01:19:45.437Z,98567.81
2023-05-10T01:23:10.704Z,98567.90
2023-05-10T01:26:07.499Z,98566.79
2023-05-10T01:29:13.222Z,98568.44
2023-05-10T01:32:08.027Z,98567.57
2023-05-10T01:34:43.727Z,98568.56
2023-05-10T01:37:22.008Z,98567.39
2023-05-10T01:40:16.360Z,98571.96
2023-05-10T01:42:51.620Z,98569.57
2023-05-10T01:45:42.819Z,98568.02
2023-05-10T01:48:12.030Z,98560.19
2023-05-10T01:50:46.434Z,98560.40
2023-05-10T01:53:19.947Z,98557.64
2023-05-10T01:55:53.709Z,98560.94
2023-05-10T01:58:26.289Z,98556.70
2023-05-10T02:00:55.117Z,98554.10
2023-05-10T02:03:26.003Z,98555.29
2023-05-10T02:05:57.215Z,98548.85
2023-05-10T02:08:26.396Z,98550.08
2023-05-10T02:10:57.874Z,98550.43
2023-05-10T02:13:28.578Z,98552.02
2023-05-10T02:15:58.687Z,98548.18
2023-05-10T02:18:28.746Z,98546.05
2023-05-10T02:20:59.140Z,98540.23
2023-05-10T02:23:27.590Z,98541.21
2023-05-10T02:25:58.075Z,98538.71
2023-05-10T02:28:28.446Z,98537.08
2023-05-10T02:30:57.856Z,98534.14
2023-05-10T02:33:27.671Z,98535.60
2023-05-10T02:35:56.731Z,98532.73
2023-05-10T02:38:26.827Z,98532.08
2023-05-10T02:40:55.660Z,98531.17
2023-05-10T02:43:25.626Z,98530.56
2023-05-10T02:45:53.716Z,98531.95
2023-05-10T02:48:21.756Z,98531.08
2023-05-10T02:50:53.530Z,98532.29
2023-05-10T02:53:32.996Z,98527.96
2023-05-10T02:56:08.190Z,98532.94
2023-05-10T02:58:36.653Z,98533.35
2023-05-10T03:01:04.976Z,98532.52
2023-05-10T03:03:33.141Z,98535.13
2023-05-10T03:06:01.414Z,98535.90
2023-05-10T03:08:30.606Z,98536.51
2023-05-10T03:11:40.851Z,98535.17
2023-05-10T03:14:30.513Z,98534.56
2023-05-10T03:17:23.344Z,98534.11
2023-05-10T03:19:56.811Z,98531.96
2023-05-10T03:22:31.683Z,98534.13
2023-05-10T03:25:06.820Z,98536.75
2023-05-10T03:27:37.566Z,98536.42
2023-05-10T03:30:12.116Z,98535.05
2023-05-10T03:32:40.928Z,98530.75
2023-05-10T03:35:14.254Z,98533.27
2023-05-10T03:37:42.530Z,98531.02
2023-05-10T03:40:10.628Z,98528.63
2023-05-10T03:42:40.001Z,98526.64
2023-05-10T03:45:08.795Z,98523.73
2023-05-10T03:47:36.856Z,98522.90
2023-05-10T03:50:06.021Z,98523.36
2023-05-10T03:52:34.492Z,98522.45
2023-05-10T03:55:03.985Z,98522.28
2023-05-10T03:57:32.012Z,98524.55
2023-05-10T03:59:59.988Z,98525.30
2023-05-10T04:02:28.255Z,98527.09
2023-05-10T04:04:56.378Z,98527.21
2023-05-10T04:07:24.335Z,98528.53
2023-05-10T04:09:52.206Z,98529.81
2023-05-10T04:12:20.032Z,98530.94
2023-05-10T04:14:47.878Z,98528.06
2023-05-10T04:17:15.784Z,98527.33
2023-05-10T04:19:43.627Z,98527.44
2023-05-10T04:22:11.914Z,98531.70
2023-05-10T04:24:39.796Z,98531.97
2023-05-10T04:27:07.643Z,98534.77
2023-05-10T04:29:35.462Z,98529.36
2023-05-10T04:32:04.697Z,98537.86
2023-05-10T04:34:35.268Z,98534.81
2023-05-10T04:37:03.166Z,98534.55
2023-05-10T04:39:31.061Z,98531.35
2023-05-10T04:41:58.969Z,98532.17
2023-05-10T04:44:26.800Z,98529.10
2023-05-10T04:46:54.663Z,98536.87
2023-05-10T04:49:22.864Z,98534.23
2023-05-10T04:51:50.762Z,98530.68
2023-05-10T04:54:18.664Z,98531.52
2023-05-10T04:56:46.838Z,98534.09
2023-05-10T04:59:15.297Z,98535.05
2023-05-10T05:01:43.234Z,98534.55
2023-05-10T05:04:11.387Z,98532.39
2023-05-10T05:06:39.292Z,98528.20
2023-05-10T05:09:07.156Z,98527.30
2023-05-10T05:11:35.009Z,98527.90
2023-05-10T05:14:02.970Z,98525.05
2023-05-10T05:16:32.597Z,98526.06
2023-05-10T05:19:00.985Z,98523.98
2023-05-10T05:21:29.940Z,98519.98
2023-05-10T05:23:57.787Z,98523.78
2023-05-10T05:26:25.805Z,98522.73
2023-05-10T05:28:55.608Z,98520.57
2023-05-10T05:31:23.604Z,98520.92
2023-05-10T05:33:51.513Z,98523.88
2023-05-10T05:36:19.464Z,98523.74
2023-05-10T05:38:47.353Z,98516.14
2023-05-10T05:41:15.182Z,98517.55
2023-05-10T05:43:43.164Z,98518.67
2023-05-10T05:46:11.179Z,98517.23
2023-05-10T05:48:39.118Z,98522.77
2023-05-10T05:51:07.429Z,98521.06
2023-05-10T05:53:35.530Z,98525.45
2023-05-10T05:56:03.635Z,98522.48
2023-05-10T05:58:31.501Z,98521.83
2023-05-10T06:00:59.395Z,98522.84
2023-05-10T06:03:27.367Z,98523.65
2023-05-10T06:05:55.327Z,98519.84
2023-05-10T06:08:23.574Z,98521.99
2023-05-10T06:10:51.470Z,98518.07
2023-05-10T06:13:19.389Z,98516.75
2023-05-10T06:15:47.365Z,98518.09
2023-05-10T06:18:15.386Z,98517.48
2023-05-10T06:20:44.050Z,98524.27
2023-05-10T06:23:12.108Z,98524.89
2023-05-10T06:25:40.279Z,98525.14
2023-05-10T06:28:08.229Z,98526.48
2023-05-10T06:30:37.615Z,98528.38
2023-05-10T06:33:05.896Z,98531.06
2023-05-10T06:35:34.611Z,98533.31
2023-05-10T06:38:02.597Z,98528.49
2023-05-10T06:40:30.517Z,98530.00
2023-05-10T06:42:58.440Z,98533.23
2023-05-10T06:45:26.372Z,98529.30
2023-05-10T06:47:54.558Z,98529.20
2023-05-10T06:50:22.489Z,98527.36
2023-05-10T06:52:52.310Z,98528.16
2023-05-10T06:55:21.126Z,98522.83
2023-05-10T06:57:48.959Z,98527.27
2023-05-10T07:00:17.782Z,98525.61
2023-05-10T07:02:46.312Z,98522.71
2023-05-10T07:05:15.272Z,98522.23
2023-05-10T07:07:43.462Z,98514.85
2023-05-10T07:10:11.615Z,98514.71
2023-05-10T07:12:39.721Z,98514.20
2023-05-10T07:15:08.467Z,98513.36
2023-05-10T07:17:36.465Z,98514.86
2023-05-10T07:20:04.836Z,98507.14
2023-05-10T07:22:32.881Z,98511.73
2023-05-10T07:25:00.841Z,98514.61
2023-05-10T07:27:28.686Z,98514.81
2023-05-10T07:29:57.595Z,98508.23
2023-05-10T07:32:25.599Z,98512.26
2023-05-10T07:34:53.749Z,98509.52
2023-05-10T07:37:21.695Z,98506.36
2023-05-10T07:39:49.526Z,98507.48
2023-05-10T07:42:17.346Z,98499.90
2023-05-10T07:44:45.189Z,98500.17
2023-05-10T07:47:13.054Z,98494.95
2023-05-10T07:49:41.016Z,98497.85
2023-05-10T07:52:09.005Z,98494.44
2023-05-10T07:54:37.086Z,98500.64
2023-05-10T07:57:04.967Z,98499.92
2023-05-10T07:59:34.101Z,98499.19
2023-05-10T08:02:02.017Z,98495.59
2023-05-10T08:04:29.970Z,98497.73
2023-05-10T08:06:57.841Z,98498.27
2023-05-10T08:09:25.826Z,98495.75
2023-05-10T08:11:53.868Z,98492.69
2023-05-10T08:14:21.721Z,98494.34
2023-05-10T08:16:49.569Z,98493.20
2023-05-10T08:19:20.132Z,98493.77
2023-05-10T08:21:48.796Z,98492.19
2023-05-10T08:24:16.997Z,98493.44
2023-05-10T08:26:44.958Z,98491.77
2023-05-10T08:29:12.861Z,98495.64
2023-05-10T08:31:40.850Z,98493.84
2023-05-10T08:34:09.512Z,98493.86
2023-05-10T08:36:39.172Z,98490.82
2023-05-10T08:39:13.544Z,98490.82
2023-05-10T08:41:51.472Z,98496.89
2023-05-10T08:44:20.318Z,98496.86
2023-05-10T08:46:54.253Z,98487.53
2023-05-10T08:49:22.826Z,98489.27
2023-05-10T08:51:55.919Z,98484.67
2023-05-10T08:54:24.445Z,98489.98
2023-05-10T08:56:54.384Z,98487.66
2023-05-10T08:59:22.632Z,98483.96
2023-05-10T09:01:52.464Z,98488.11
2023-05-10T09:04:22.225Z,98492.12
2023-05-10T09:06:50.496Z,98497.15
2023-05-10T09:09:20.796Z,98493.39
2023-05-10T09:11:49.259Z,98486.35
2023-05-10T09:14:18.531Z,98481.83
2023-05-10T09:16:47.908Z,98481.59
2023-05-10T09:19:15.925Z,98486.48
2023-05-10T09:21:44.452Z,98490.48
2023-05-10T09:24:13.285Z,98484.34
2023-05-10T09:26:50.933Z,98485.85
2023-05-10T09:29:19.084Z,98491.69
2023-05-10T09:31:47.866Z,98487.61
2023-05-10T09:34:30.529Z,98476.15
2023-05-10T09:37:05.450Z,98483.42
2023-05-10T09:39:37.236Z,98486.19
2023-05-10T09:42:10.096Z,98481.92
2023-05-10T09:44:39.163Z,98479.20
2023-05-10T09:47:07.001Z,98484.14
2023-05-10T09:49:35.904Z,98486.89
2023-05-10T09:52:05.545Z,98493.27
2023-05-10T09:54:34.732Z,98486.52
2023-05-10T09:57:02.603Z,98479.46
2023-05-10T09:59:30.658Z,98478.41
2023-05-10T10:02:00.708Z,98474.63
2023-05-10T10:04:29.604Z,98477.88
2023-05-10T10:07:06.060Z,98475.23
2023-05-10T10:09:35.468Z,98475.64
2023-05-10T10:12:04.904Z,98472.63
2023-05-10T10:14:33.052Z,98475.02
2023-05-10T10:19:34.689Z,98474.39
2023-05-10T10:22:02.502Z,98461.11
2023-05-10T10:24:30.466Z,98462.92
2023-05-10T10:27:06.441Z,98470.94
2023-05-10T10:29:49.183Z,98462.87
2023-05-10T10:32:31.356Z,98463.33
2023-05-10T10:35:00.229Z,98459.81
2023-05-10T10:37:45.484Z,98461.25
2023-05-10T10:40:33.584Z,98451.29
2023-05-10T10:43:27.844Z,98454.38
2023-05-10T10:46:15.184Z,98453.92
2023-05-10T10:48:49.597Z,98449.45
2023-05-10T10:51:17.661Z,98437.52
2023-05-10T10:53:45.740Z,98431.61
2023-05-10T10:56:16.388Z,98436.99
2023-05-10T10:58:54.831Z,98432.05
2023-05-10T11:01:22.947Z,98436.41
2023-05-10T11:03:59.973Z,98435.36
2023-05-10T11:06:36.165Z,98433.67
2023-05-10T11:09:12.588Z,98432.29
2023-05-10T11:11:53.083Z,98427.28
2023-05-10T11:14:23.503Z,98430.53
2023-05-10T11:16:52.157Z,98421.23
2023-05-10T11:19:20.628Z,98425.98
2023-05-10T11:22:12.733Z,98432.90
2023-05-10T11:24:40.735Z,98431.91
2023-05-10T11:27:09.585Z,98427.67
2023-05-10T11:29:37.529Z,98422.20
2023-05-10T11:32:09.152Z,98422.78
2023-05-10T11:34:37.137Z,98423.53
2023-05-10T11:37:05.005Z,98419.91
2023-05-10T11:39:34.593Z,98420.88
2023-05-10T11:42:02.664Z,98414.55
2023-05-10T11:44:32.494Z,98414.77
2023-05-10T11:47:01.811Z,98407.14
2023-05-10T11:49:29.975Z,98405.60
2023-05-10T11:52:08.339Z,98402.93
2023-05-10T11:54:36.626Z,98407.66
2023-05-10T11:57:05.512Z,98411.41
2023-05-10T11:59:33.569Z,98405.55
2023-05-10T12:02:01.862Z,98401.94
2023-05-10T12:04:30.843Z,98398.23
2023-05-10T12:06:59.054Z,98408.77
2023-05-10T12:09:39.434Z,98408.86
2023-05-10T12:12:11.191Z,98405.26
2023-05-10T12:14:39.258Z,98399.84
2023-05-10T12:17:07.214Z,98404.86
2023-05-10T12:19:39.719Z,98404.54
2023-05-10T12:22:07.629Z,98400.52
2023-05-10T12:24:36.634Z,98395.77
2023-05-10T12:27:09.615Z,98396.98
2023-05-10T12:29:37.732Z,98401.16
2023-05-10T12:32:05.664Z,98394.88
2023-05-10T12:34:36.459Z,98392.18
2023-05-10T12:37:05.147Z,98388.93
2023-05-10T12:39:44.754Z,98389.79
2023-05-10T12:42:15.082Z,98386.70
2023-05-10T12:44:43.076Z,98385.95
2023-05-10T12:47:12.024Z,98381.82
2023-05-10T12:49:39.876Z,98378.04
2023-05-10T12:52:07.796Z,98377.79
2023-05-10T12:54:36.223Z,98378.02
2023-05-10T12:57:04.067Z,98385.35
2023-05-10T12:59:32.064Z,98376.01
2023-05-10T13:01:59.985Z,98377.01
2023-05-10T13:04:27.959Z,98377.10
2023-05-10T13:06:59.813Z,98373.36
2023-05-10T13:09:29.597Z,98374.04
2023-05-10T13:11:57.514Z,98376.25
2023-05-10T13:14:25.823Z,98369.85
2023-05-10T13:16:53.833Z,98369.30
2023-05-10T13:19:21.888Z,98363.92
2023-05-10T13:21:49.859Z,98361.99
2023-05-10T13:24:18.617Z,98359.63
2023-05-10T13:26:46.592Z,98356.67
2023-05-10T13:29:14.529Z,98351.46
2023-05-10T13:31:42.576Z,98357.30
2023-05-10T13:34:10.758Z,98355.67
2023-05-10T13:36:39.209Z,98356.89
2023-05-10T13:39:07.428Z,98359.09
2023-05-10T13:41:35.462Z,98352.98
2023-05-10T13:44:03.438Z,98352.91
2023-05-10T13:46:32.059Z,98346.58
2023-05-10T13:49:00.056Z,98340.57
2023-05-10T13:51:27.934Z,98338.63
2023-05-10T13:53:55.787Z,98335.17
2023-05-10T13:56:23.700Z,98334.39
2023-05-10T13:58:51.642Z,98332.77
2023-05-10T14:01:19.578Z,98328.69
2023-05-10T14:03:47.673Z,98326.84
2023-05-10T14:06:15.743Z,98327.36
2023-05-10T14:08:43.657Z,98326.70
2023-05-10T14:11:11.693Z,98328.99
2023-05-10T14:13:39.611Z,98325.89
2023-05-10T14:16:07.828Z,98328.84
2023-05-10T14:18:35.759Z,98324.74
2023-05-10T14:21:04.590Z,98322.93
2023-05-10T14:23:32.400Z,98324.11
2023-05-10T14:26:00.245Z,98315.98
2023-05-10T14:28:28.107Z,98318.64
2023-05-10T14:30:56.193Z,98315.04
2023-05-10T14:33:24.081Z,98314.55
2023-05-10T14:35:52.179Z,98317.08
2023-05-10T14:38:20.916Z,98314.77
2023-05-10T14:40:49.032Z,98316.61
2023-05-10T14:43:17.364Z,98313.39
2023-05-10T14:45:46.032Z,98312.00
2023-05-10T14:48:16.513Z,98308.86
2023-05-10T14:50:45.299Z,98312.33
2023-05-10T14:53:13.130Z,98307.05
2023-05-10T14:55:41.040Z,98311.68
2023-05-10T14:58:08.964Z,98309.95
2023-05-10T15:00:36.842Z,98308.09
2023-05-10T15:03:05.353Z,98308.77
2023-05-10T15:05:33.850Z,98306.67
2023-05-10T15:08:02.174Z,98307.52
2023-05-10T15:10:30.872Z,98303.99
2023-05-10T15:13:00.222Z,98300.13
2023-05-10T15:15:28.146Z,98297.46
2023-05-10T15:17:55.997Z,98299.61
2023-05-10T15:20:23.938Z,98292.61
2023-05-10T15:22:51.994Z,98300.84
2023-05-10T15:25:21.066Z,98299.88
2023-05-10T15:27:49.006Z,98300.98
2023-05-10T15:30:16.898Z,98300.23
2023-05-10T15:32:44.804Z,98299.41
2023-05-10T15:35:12.803Z,98300.84
2023-05-10T15:37:40.647Z,98295.76
2023-05-10T15:40:08.905Z,98298.16
2023-05-10T15:42:49.862Z,98294.34
2023-05-10T15:45:18.237Z,98296.77
2023-05-10T15:47:46.487Z,98303.60
2023-05-10T15:50:16.162Z,98300.33
2023-05-10T15:52:44.048Z,98300.09
2023-05-10T15:55:15.088Z,98300.89
2023-05-10T15:57:45.087Z,98298.77
2023-05-10T16:00:13.839Z,98299.59
2023-05-10T16:02:42.525Z,98301.58
2023-05-10T16:05:11.054Z,98300.81
2023-05-10T16:07:40.435Z,98301.53
2023-05-10T16:10:10.618Z,98296.89
2023-05-10T16:12:39.133Z,98301.81
2023-05-10T16:15:07.684Z,98303.35
2023-05-10T16:17:35.646Z,98303.00
2023-05-10T16:20:03.979Z,98303.11
2023-05-10T16:22:31.924Z,98303.61
2023-05-10T16:25:00.056Z,98307.15
2023-05-10T16:27:30.475Z,98307.39
2023-05-10T16:29:58.344Z,98305.85
2023-05-10T16:32:26.301Z,98308.23
2023-05-10T16:34:54.219Z,98306.17
2023-05-10T16:37:22.185Z,98304.88
2023-05-10T16:39:50.069Z,98312.14
2023-05-10T16:42:18.241Z,98313.36
2023-05-10T16:44:46.200Z,98313.56
2023-05-10T16:47:14.056Z,98316.96
2023-05-10T16:49:42.342Z,98312.92
2023-05-10T16:52:10.250Z,98316.72
2023-05-10T16:54:38.157Z,98317.02
2023-05-10T16:57:06.626Z,98320.42
2023-05-10T16:59:34.679Z,98320.59
2023-05-10T17:02:02.627Z,98322.23
2023-05-10T17:04:30.898Z,98326.60
2023-05-10T17:06:58.936Z,98328.84
2023-05-10T17:09:26.804Z,98332.67
2023-05-10T17:11:54.669Z,98336.08
2023-05-10T17:14:22.631Z,98333.70
2023-05-10T17:16:52.864Z,98335.45
2023-05-10T17:19:20.958Z,98339.11
2023-05-10T17:21:49.287Z,98340.23
2023-05-10T17:24:17.238Z,98344.42
2023-05-10T17:26:45.794Z,98345.05
2023-05-10T17:29:16.637Z,98341.59
2023-05-10T17:31:44.600Z,98349.02
2023-05-10T17:34:12.586Z,98344.70
2023-05-10T17:36:40.537Z,98345.82
2023-05-10T17:39:08.427Z,98347.80
2023-05-10T17:41:36.268Z,98348.14
2023-05-10T17:44:04.145Z,98350.55
2023-05-10T17:46:32.994Z,98353.23
2023-05-10T17:49:00.899Z,98359.02
2023-05-10T17:51:28.987Z,98364.42
2023-05-10T17:53:56.816Z,98361.77
2023-05-10T17:56:24.896Z,98364.91
2023-05-10T17:58:53.023Z,98363.61
2023-05-10T18:01:21.234Z,98365.51
2023-05-10T18:03:49.821Z,98368.11
2023-05-10T18:06:17.904Z,98372.81
2023-05-10T18:08:45.798Z,98375.64
2023-05-10T18:11:13.818Z,98378.86
2023-05-10T18:13:41.892Z,98378.11
2023-05-10T18:16:12.894Z,98379.63
2023-05-10T18:18:40.825Z,98381.90
2023-05-10T18:21:08.747Z,98385.44
2023-05-10T18:23:36.713Z,98388.38
2023-05-10T18:26:04.751Z,98392.16
2023-05-10T18:28:32.599Z,98394.76
2023-05-10T18:31:00.600Z,98398.71
2023-05-10T18:33:28.698Z,98399.35
2023-05-10T18:35:57.006Z,98405.79
2023-05-10T18:38:24.931Z,98406.11
2023-05-10T18:40:52.859Z,98413.80
2023-05-10T18:43:20.981Z,98412.90
2023-05-10T18:45:50.213Z,98411.72
2023-05-10T18:48:18.344Z,98416.16
2023-05-10T18:50:46.206Z,98419.16
2023-05-10T18:53:14.201Z,98416.45
2023-05-10T18:55:44.206Z,98421.27
2023-05-10T18:58:12.842Z,98425.92
2023-05-10T19:00:41.066Z,98428.59
2023-05-10T19:03:08.918Z,98435.73
2023-05-10T19:05:36.815Z,98435.55
2023-05-10T19:08:05.276Z,98438.80
2023-05-10T19:10:33.162Z,98439.86
2023-05-10T19:13:01.013Z,98443.88
2023-05-10T19:15:28.872Z,98445.85
2023-05-10T19:18:22.163Z,98443.33
2023-05-10T19:20:50.120Z,98444.54
2023-05-10T19:23:17.988Z,98448.24
2023-05-10T19:25:47.052Z,98450.50
2023-05-10T19:28:15.149Z,98450.46
2023-05-10T19:30:43.021Z,98449.45
2023-05-10T19:33:12.714Z,98450.98
2023-05-10T19:35:40.818Z,98452.44
2023-05-10T19:38:08.761Z,98452.41
2023-05-10T19:40:36.923Z,98449.82
2023-05-10T19:43:04.894Z,98448.73
2023-05-10T19:45:38.985Z,98458.61
2023-05-10T19:48:07.008Z,98456.75
2023-05-10T19:50:34.871Z,98456.04
2023-05-10T19:53:02.754Z,98461.21
2023-05-10T19:55:32.225Z,98458.79
2023-05-10T19:58:02.595Z,98462.27
2023-05-10T20:00:31.638Z,98455.55
2023-05-10T20:02:59.801Z,98456.38
2023-05-10T20:05:27.710Z,98455.13
2023-05-10T20:07:55.580Z,98455.99
2023-05-10T20:10:25.731Z,98451.36
2023-05-10T20:12:54.910Z,98454.61
2023-05-10T20:15:23.711Z,98458.77
2023-05-10T20:17:53.318Z,98457.74
2023-05-10T20:20:22.099Z,98457.94
2023-05-10T20:22:50.535Z,98459.99
2023-05-10T20:25:19.290Z,98460.41
2023-05-10T20:27:47.254Z,98456.90
2023-05-10T20:30:15.605Z,98458.33
2023-05-10T20:32:43.785Z,98457.03
2023-05-10T20:35:12.020Z,98458.08
2023-05-10T20:37:39.933Z,98456.17
2023-05-10T20:40:08.642Z,98458.61
2023-05-10T20:42:36.519Z,98460.89
2023-05-10T20:45:04.856Z,98459.63
2023-05-10T20:47:33.281Z,98459.64
2023-05-10T20:50:01.162Z,98465.38
2023-05-10T20:52:29.081Z,98463.30
2023-05-10T20:54:56.955Z,98465.96
2023-05-10T20:57:24.863Z,98467.55
2023-05-10T20:59:53.019Z,98461.63
2023-05-10T21:02:20.911Z,98460.70
2023-05-10T21:04:48.821Z,98462.69
2023-05-10T21:07:16.658Z,98462.77
2023-05-10T21:09:44.557Z,98462.33
2023-05-10T21:12:13.486Z,98466.03
2023-05-10T21:14:43.089Z,98468.04
2023-05-10T21:17:10.953Z,98470.34
2023-05-10T21:19:38.850Z,98473.79
2023-05-10T21:22:06.754Z,98474.48
2023-05-10T21:24:35.232Z,98473.01
2023-05-10T21:27:03.145Z,98469.68
2023-05-10T21:29:31.023Z,98469.15
2023-05-10T21:31:58.974Z,98469.13
2023-05-10T21:34:26.943Z,98465.59
2023-05-10T21:36:54.905Z,98468.20
2023-05-10T21:39:22.775Z,98468.58
2023-05-10T21:41:50.591Z,98469.80
2023-05-10T21:44:18.581Z,98466.00
2023-05-10T21:46:46.467Z,98470.30
2023-05-10T21:49:14.366Z,98469.59
2023-05-10T21:51:42.228Z,98470.30
2023-05-10T21:54:10.076Z,98469.70
2023-05-10T21:56:38.147Z,98473.91
2023-05-10T21:59:06.353Z,98474.73
2023-05-10T22:01:34.259Z,98472.73
2023-05-10T22:04:02.270Z,98469.59
2023-05-10T22:06:30.156Z,98469.77
2023-05-10T22:08:58.163Z,98469.19
2023-05-10T22:11:27.614Z,98467.73
2023-05-10T22:13:55.580Z,98472.88
2023-05-10T22:16:24.757Z,98472.36
2023-05-10T22:18:54.575Z,98474.15
2023-05-10T22:21:22.710Z,98478.30
2023-05-10T22:23:50.542Z,98477.41
2023-05-10T22:26:18.615Z,98481.83
2023-05-10T22:28:46.486Z,98481.33
2023-05-10T22:31:14.462Z,98484.36
2023-05-10T22:33:42.533Z,98490.09
2023-05-10T22:36:10.568Z,98487.77
2023-05-10T22:38:38.487Z,98489.09
2023-05-10T22:41:06.784Z,98493.45
2023-05-10T22:43:34.722Z,98491.23
2023-05-10T22:46:02.600Z,98488.45
2023-05-10T22:48:34.225Z,98490.22
2023-05-10T22:51:02.187Z,98494.08
2023-05-10T22:53:30.309Z,98495.15
2023-05-10T22:55:58.410Z,98495.30
2023-05-10T22:58:26.969Z,98502.70
2023-05-10T23:00:55.420Z,98500.45
2023-05-10T23:03:23.381Z,98503.39
2023-05-10T23:05:51.223Z,98503.46
2023-05-10T23:08:19.063Z,98506.14
2023-05-10T23:10:47.068Z,98508.98
2023-05-10T23:13:14.893Z,98508.09
2023-05-10T23:15:43.683Z,98510.04
2023-05-10T23:18:12.960Z,98513.08
2023-05-10T23:20:44.057Z,98511.05
2023-05-10T23:23:11.983Z,98511.83
2023-05-10T23:25:39.821Z,98512.20
2023-05-10T23:28:07.849Z,98507.56
2023-05-10T23:30:35.724Z,98502.42
2023-05-10T23:33:03.658Z,98505.08
2023-05-10T23:35:31.613Z,98504.77
2023-05-10T23:37:59.579Z,98508.55
2023-05-10T23:40:27.506Z,98501.60
2023-05-10T23:42:55.472Z,98505.20
2023-05-10T23:45:23.342Z,98503.29
2023-05-10T23:47:51.283Z,98509.05
2023-05-10T23:50:19.382Z,98507.35
2023-05-10T23:52:47.600Z,98509.63
2023-05-10T23:55:15.679Z,98511.80
2023-05-10T23:57:43.709Z,98510.96
